AirNav   Everest Fuels
 
 921 users online  

XA20 Landry's Warehouse Heliport
Houston, Texas, USA

GOING TO HOUSTON?


FAA INFORMATION EFFECTIVE 13 AUGUST 2020

Location

FAA Identifier: XA20
Lat/Long: 29-47-09.0000N 095-27-30.0000W
29-47.150000N 095-27.500000W
29.7858333,-95.4583333
(estimated)
Elevation: 68 ft. / 21 m (estimated)
From city: 5 miles NW of HOUSTON, TX
Time zone: UTC -5 (UTC -6 during Standard Time)
Zip code: 77055

Heliport Operations

Heliport use: Private use. Permission required prior to landing
Activation date: 06/2004
Control tower: no
ARTCC: HOUSTON CENTER
FSS: MONTGOMERY COUNTY FLIGHT SERVICE STATION
Attendance: UNATNDD
Wind indicator: yes
Segmented circle: no
Lights: SS-SR

Heliport Communications

WX ASOS at HOU (13 nm SE): PHONE 713-847-1462
WX ASOS at IAH (13 nm NE): PHONE 281-443-6397
WX ASOS at SGR (14 nm SW): 118.125 (281-242-7605)
WX AWOS-3 at AXH (17 nm S): 123.625 (281-431-6572)
WX ASOS at DWH (17 nm N): PHONE 281-251-7853
WX AWOS-3 at EFD (19 nm SE): 135.575 (713-847-4430)
WX ASOS at LVJ (19 nm SE): 118.525 (281-992-1853)

Nearby radio navigation aids

VOR radial/distance  VOR name  Freq  Var
IAHr205/11.8HUMBLE VORTAC116.6005E
MHFr284/39.7TRINITY VOR/DME113.6007E

Heliport Services

Runway Information

Helipad H1

Dimensions: 25 x 25 ft. / 8 x 8 m
Surface: concrete
Runway edge lights: PERI
Traffic pattern: leftleft

Heliport Ownership and Management from official FAA records

Ownership: Privately-owned
Owner: LANDRY'S, INC.
1510 WEST LOOP SOUTH
HOUSTON, TX 77027
Manager: KASSEL COON
8251 TRAVELAIR ST.
HOUSTON, TX 77061
Phone 713-645-9191

Additional Remarks

A52-H1 30 FT BLDGS NORTH, EAST & WEST; 28 FT PLINES SOUTH & WEST; 375 FT TOWER NE; AND 250 FT LGT POLES SW, SE & EAST OF LNDG PAD.
ARPT DESIRES HELIPORT NOT BE CHARTED.
FOR CD CTC HOUSTON ARTCC AT 281-230-5622.

Instrument Procedures

There are no published instrument procedures at XA20.

Some nearby airports with instrument procedures:

KIWS - West Houston Airport (11 nm W)
KHOU - William P Hobby Airport (13 nm SE)
KIAH - George Bush Intercontinental/Houston Airport (13 nm NE)
KSGR - Sugar Land Regional Airport (14 nm SW)
KAXH - Houston Southwest Airport (17 nm S)
KDWH - David Wayne Hooks Memorial Airport (17 nm N)
KEFD - Ellington Airport (19 nm SE)
KLVJ - Pearland Regional Airport (19 nm SE)
 
Loc | Ops | Rwys | IFR | FBO | Links
Com | Nav | Svcs | Stats | Notes
Area around XA20 (Landry's Warehouse Heliport)
 
Road maps at: MapQuest Bing Google
 
Aerial photo
No photo
 
Sectional chart

 
Airport distance calculator
Flying to Landry's Warehouse Heliport? Find the distance to fly.

From to XA20

Sunrise and sunset
Times for 13-Aug-2020
 Local
(UTC-5)
 Zulu
(UTC)
Morning civil twilight06:2511:25
Sunrise06:5011:50
Sunset20:0301:03
Evening civil twilight20:2801:28

Current date and time
Zulu (UTC)  13-Aug-2020 12:32:29
Local (UTC-5)  13-Aug-2020 07:32:29
 
METAR
KHOU 
13nm SE 
131153Z 19003KT 10SM FEW015 SCT250 27/24 A2997 RMK AO2 SLP152 T02670244 10278 20267 53003
KIAH 
14nm N 
131153Z 18003KT 10SM FEW250 25/24 A2998 RMK AO2 SLP149 T02500239 10283 20250 53004
KSGR 
14nm SW 
131153Z 19004KT 10SM CLR 25/24 A2997 RMK AO2 SLP147 T02500244 10272 20244 55000
KAXH 
17nm S 
131215Z AUTO 00000KT 1/4SM FG VV002 23/23 A2999 RMK AO2 T02300230
KDWH 
18nm N 
131153Z AUTO 20003KT 10SM CLR 26/23 A2998 RMK AO2 SLP148 T02560233 10278 20256 53004 $
KEFD 
19nm SE 
131150Z 16004KT 10SM FEW020 SCT250 26/24 A2996
KLVJ 
19nm SE 
131153Z AUTO 00000KT 9SM CLR 26/23 A2998 RMK AO2 SLP153 T02610228 10278 20256 53003
KT41 
22nm E 
131215Z AUTO 21004KT 10SM CLR 26/25 A2998 RMK AO2 T02600248
KTME 
23nm W 
131215Z AUTO 19003KT 5SM BR 25/25 A2999 RMK AO2
TAF
KHOU 
13nm SE 
131120Z 1312/1412 20006KT P6SM SKC FM131400 23007KT P6SM SCT250 FM132000 18007KT P6SM SCT250 FM140700 VRB04KT P6SM FEW250
KIAH 
14nm N 
131120Z 1312/1418 VRB03KT P6SM FEW250 FM131400 21007KT P6SM SCT250 FM132100 17007KT P6SM SCT250 FM140800 20005KT P6SM FEW250 FM141500 23009KT P6SM FEW250
KSGR 
14nm SW 
131120Z 1312/1412 19004KT P6SM SKC FM131400 22007KT P6SM SCT250 FM132000 18005KT P6SM FEW250 FM140800 VRB03KT P6SM FEW250
KEFD 
19nm SE 
131200Z 1312/1418 17006KT 9999 FEW020 QNH2994INS BECMG 1320/1321 15010G15KT 9999 SCT060 QNH2989INS BECMG 1402/1403 18009KT 9999 SKC QNH2996INS TX36/1319Z TN26/1410Z
NOTAMs
Click for the latest NOTAMs
NOTAMs are issued by the DoD/FAA and will open in a separate window not controlled by AirNav.

 

 
 

Would you like to see your business listed on this page?

 If your business provides an interesting product or service to pilots, flight crews, aircraft, or users of the Landry's Warehouse Heliport, you should consider listing it here.  To start the listing process, click on the button below
 
Add a business
 

Other Pages about Landry's Warehouse Heliport

Update a link
 
Copyright © AirNav, LLC. All rights reserved. Privacy Policy  Contact